sensor_id;sensor_type;location;lat;lon;timestamp;P1;durP1;ratioP1;P2;durP2;ratioP2
60225;SDS011;46090;48.436;11.410;2024-02-26T11:06:08;6.43;;;2.40;;
60225;SDS011;46090;48.436;11.410;2024-02-26T11:08:37;6.35;;;2.60;;
60225;SDS011;46090;48.436;11.410;2024-02-26T11:11:04;6.05;;;2.55;;
60225;SDS011;46090;48.436;11.410;2024-02-26T11:13:31;6.07;;;2.33;;
60225;SDS011;46090;48.436;11.410;2024-02-26T11:16:01;7.00;;;2.63;;
60225;SDS011;46090;48.436;11.410;2024-02-26T11:18:28;5.15;;;2.05;;
60225;SDS011;46090;48.436;11.410;2024-02-26T11:20:56;6.05;;;2.45;;
60225;SDS011;46090;48.436;11.410;2024-02-26T11:23:24;5.68;;;2.45;;
60225;SDS011;46090;48.436;11.410;2024-02-26T11:25:50;5.88;;;2.53;;
60225;SDS011;46090;48.436;11.410;2024-02-26T11:28:19;6.05;;;2.33;;
60225;SDS011;46090;48.436;11.410;2024-02-26T11:30:47;6.53;;;2.38;;
60225;SDS011;46090;48.436;11.410;2024-02-26T11:33:14;4.43;;;1.80;;
60225;SDS011;46090;48.436;11.410;2024-02-26T11:35:42;5.30;;;2.15;;
60225;SDS011;46090;48.436;11.410;2024-02-26T11:38:09;4.43;;;1.98;;
60225;SDS011;46090;48.436;11.410;2024-02-26T11:40:44;6.57;;;2.72;;
60225;SDS011;46090;48.436;11.410;2024-02-26T11:43:11;6.07;;;2.30;;
60225;SDS011;46090;48.436;11.410;2024-02-26T11:48:22;5.47;;;2.22;;
60225;SDS011;46090;48.436;11.410;2024-02-26T11:50:54;4.72;;;2.10;;
60225;SDS011;46090;48.436;11.410;2024-02-26T11:53:22;6.13;;;2.08;;
60225;SDS011;46090;48.436;11.410;2024-02-26T11:58:58;4.97;;;2.10;;
60225;SDS011;46090;48.436;11.410;2024-02-26T12:01:36;7.45;;;1.73;;
60225;SDS011;46090;48.436;11.410;2024-02-26T12:04:07;4.85;;;1.85;;
60225;SDS011;46090;48.436;11.410;2024-02-26T12:06:55;4.47;;;1.85;;
60225;SDS011;46090;48.436;11.410;2024-02-26T12:09:39;4.05;;;1.65;;
60225;SDS011;46090;48.436;11.410;2024-02-26T12:12:09;5.13;;;1.58;;
60225;SDS011;46090;48.436;11.410;2024-02-26T12:14:52;4.68;;;1.50;;
60225;SDS011;46090;48.436;11.410;2024-02-26T12:17:20;5.10;;;1.92;;
60225;SDS011;46090;48.436;11.410;2024-02-26T12:19:48;4.00;;;1.73;;
60225;SDS011;46090;48.436;11.410;2024-02-26T12:22:16;4.45;;;2.00;;
60225;SDS011;46090;48.436;11.410;2024-02-26T12:24:43;5.85;;;1.70;;
60225;SDS011;46090;48.436;11.410;2024-02-26T12:27:10;4.53;;;1.50;;
60225;SDS011;46090;48.436;11.410;2024-02-26T12:29:37;3.78;;;1.50;;
60225;SDS011;46090;48.436;11.410;2024-02-26T12:32:04;4.68;;;1.60;;
60225;SDS011;46090;48.436;11.410;2024-02-26T12:34:33;4.32;;;1.65;;
60225;SDS011;46090;48.436;11.410;2024-02-26T12:37:00;6.75;;;1.77;;
60225;SDS011;46090;48.436;11.410;2024-02-26T12:39:27;5.10;;;2.10;;
60225;SDS011;46090;48.436;11.410;2024-02-26T12:41:54;5.07;;;2.08;;
60225;SDS011;46090;48.436;11.410;2024-02-26T12:44:24;5.22;;;2.05;;
60225;SDS011;46090;48.436;11.410;2024-02-26T12:46:59;5.50;;;1.73;;
60225;SDS011;46090;48.436;11.410;2024-02-26T12:49:30;6.03;;;1.85;;
60225;SDS011;46090;48.436;11.410;2024-02-26T12:51:57;4.25;;;1.92;;
60225;SDS011;46090;48.436;11.410;2024-02-26T12:54:28;5.40;;;1.63;;
60225;SDS011;46090;48.436;11.410;2024-02-26T12:56:59;5.13;;;1.70;;
60225;SDS011;46090;48.436;11.410;2024-02-26T12:59:29;4.32;;;1.55;;
60225;SDS011;46090;48.436;11.410;2024-02-26T13:01:56;6.03;;;2.47;;
60225;SDS011;46090;48.436;11.410;2024-02-26T13:04:23;6.97;;;2.90;;
60225;SDS011;46090;48.436;11.410;2024-02-26T13:06:50;6.70;;;2.88;;
60225;SDS011;46090;48.436;11.410;2024-02-26T13:09:17;7.03;;;2.97;;
60225;SDS011;46090;48.436;11.410;2024-02-26T13:11:45;7.97;;;2.85;;
60225;SDS011;46090;48.436;11.410;2024-02-26T13:14:20;7.25;;;2.90;;
60225;SDS011;46090;48.436;11.410;2024-02-26T13:16:57;8.15;;;2.58;;
60225;SDS011;46090;48.436;11.410;2024-02-26T13:19:24;5.60;;;2.28;;
60225;SDS011;46090;48.436;11.410;2024-02-26T13:21:51;5.40;;;2.40;;
60225;SDS011;46090;48.436;11.410;2024-02-26T13:24:19;8.38;;;2.25;;
60225;SDS011;46090;48.436;11.410;2024-02-26T13:26:46;5.38;;;1.83;;
60225;SDS011;46090;48.436;11.410;2024-02-26T13:29:17;4.18;;;1.52;;
60225;SDS011;46090;48.436;11.410;2024-02-26T13:31:44;5.65;;;2.10;;
60225;SDS011;46090;48.436;11.410;2024-02-26T13:34:10;5.22;;;1.88;;
60225;SDS011;46090;48.436;11.410;2024-02-26T13:36:38;4.78;;;1.80;;
60225;SDS011;46090;48.436;11.410;2024-02-26T13:39:04;6.43;;;2.35;;
60225;SDS011;46090;48.436;11.410;2024-02-26T13:41:31;5.82;;;2.20;;
60225;SDS011;46090;48.436;11.410;2024-02-26T13:43:58;5.38;;;1.85;;
60225;SDS011;46090;48.436;11.410;2024-02-26T13:46:25;6.43;;;2.25;;
60225;SDS011;46090;48.436;11.410;2024-02-26T13:48:53;6.63;;;2.20;;
60225;SDS011;46090;48.436;11.410;2024-02-26T13:51:21;6.70;;;2.10;;
60225;SDS011;46090;48.436;11.410;2024-02-26T13:53:48;9.00;;;2.25;;
60225;SDS011;46090;48.436;11.410;2024-02-26T13:56:15;5.30;;;2.10;;
60225;SDS011;46090;48.436;11.410;2024-02-26T13:58:41;5.03;;;1.52;;
60225;SDS011;46090;48.436;11.410;2024-02-26T14:01:08;5.43;;;1.45;;
60225;SDS011;46090;48.436;11.410;2024-02-26T14:03:35;5.10;;;1.67;;
60225;SDS011;46090;48.436;11.410;2024-02-26T14:06:02;3.83;;;1.00;;
60225;SDS011;46090;48.436;11.410;2024-02-26T14:08:29;4.47;;;1.25;;
60225;SDS011;46090;48.436;11.410;2024-02-26T14:10:56;3.70;;;0.90;;
60225;SDS011;46090;48.436;11.410;2024-02-26T14:13:23;2.92;;;1.10;;
60225;SDS011;46090;48.436;11.410;2024-02-26T14:15:49;5.80;;;1.52;;
60225;SDS011;46090;48.436;11.410;2024-02-26T14:18:16;3.17;;;1.05;;
60225;SDS011;46090;48.436;11.410;2024-02-26T14:20:43;2.83;;;0.90;;
60225;SDS011;46090;48.436;11.410;2024-02-26T14:23:11;3.88;;;0.80;;
60225;SDS011;46090;48.436;11.410;2024-02-26T14:25:37;5.90;;;1.42;;
60225;SDS011;46090;48.436;11.410;2024-02-26T14:28:04;2.97;;;1.13;;
60225;SDS011;46090;48.436;11.410;2024-02-26T14:30:31;4.13;;;0.90;;
60225;SDS011;46090;48.436;11.410;2024-02-26T14:32:59;3.38;;;1.13;;
60225;SDS011;46090;48.436;11.410;2024-02-26T14:35:26;5.68;;;1.90;;
60225;SDS011;46090;48.436;11.410;2024-02-26T14:37:52;6.32;;;2.60;;
60225;SDS011;46090;48.436;11.410;2024-02-26T14:40:20;5.22;;;2.00;;
60225;SDS011;46090;48.436;11.410;2024-02-26T14:42:47;4.07;;;1.30;;
60225;SDS011;46090;48.436;11.410;2024-02-26T14:45:14;4.65;;;1.25;;
60225;SDS011;46090;48.436;11.410;2024-02-26T14:47:40;3.35;;;1.27;;
60225;SDS011;46090;48.436;11.410;2024-02-26T14:50:07;4.55;;;1.30;;
60225;SDS011;46090;48.436;11.410;2024-02-26T14:52:34;5.78;;;1.42;;
60225;SDS011;46090;48.436;11.410;2024-02-26T14:55:01;4.45;;;1.65;;
60225;SDS011;46090;48.436;11.410;2024-02-26T14:57:28;3.75;;;1.13;;
60225;SDS011;46090;48.436;11.410;2024-02-26T14:59:54;3.88;;;1.35;;
60225;SDS011;46090;48.436;11.410;2024-02-26T15:02:21;4.07;;;1.20;;
60225;SDS011;46090;48.436;11.410;2024-02-26T15:04:48;4.18;;;1.35;;
60225;SDS011;46090;48.436;11.410;2024-02-26T15:07:15;3.28;;;1.25;;
60225;SDS011;46090;48.436;11.410;2024-02-26T15:09:43;3.45;;;1.10;;
60225;SDS011;46090;48.436;11.410;2024-02-26T15:12:09;4.70;;;1.23;;
60225;SDS011;46090;48.436;11.410;2024-02-26T15:14:37;3.40;;;1.25;;
60225;SDS011;46090;48.436;11.410;2024-02-26T15:17:04;5.45;;;1.83;;
60225;SDS011;46090;48.436;11.410;2024-02-26T15:19:31;4.78;;;1.73;;
60225;SDS011;46090;48.436;11.410;2024-02-26T15:21:58;11.15;;;4.43;;
60225;SDS011;46090;48.436;11.410;2024-02-26T15:24:25;9.77;;;2.95;;
60225;SDS011;46090;48.436;11.410;2024-02-26T15:26:51;8.77;;;2.97;;
60225;SDS011;46090;48.436;11.410;2024-02-26T15:29:18;7.30;;;3.38;;
60225;SDS011;46090;48.436;11.410;2024-02-26T15:31:45;6.43;;;2.42;;
60225;SDS011;46090;48.436;11.410;2024-02-26T15:34:11;4.75;;;1.90;;
60225;SDS011;46090;48.436;11.410;2024-02-26T15:36:38;5.65;;;2.00;;
60225;SDS011;46090;48.436;11.410;2024-02-26T15:39:07;6.28;;;2.15;;
60225;SDS011;46090;48.436;11.410;2024-02-26T15:41:34;4.72;;;2.03;;
60225;SDS011;46090;48.436;11.410;2024-02-26T15:44:01;5.07;;;2.10;;
60225;SDS011;46090;48.436;11.410;2024-02-26T15:46:27;6.25;;;2.13;;
60225;SDS011;46090;48.436;11.410;2024-02-26T15:48:55;5.78;;;2.10;;
60225;SDS011;46090;48.436;11.410;2024-02-26T15:51:22;5.57;;;1.80;;
60225;SDS011;46090;48.436;11.410;2024-02-26T15:53:52;5.68;;;1.80;;
60225;SDS011;46090;48.436;11.410;2024-02-26T15:56:20;5.47;;;1.67;;
60225;SDS011;46090;48.436;11.410;2024-02-26T15:58:51;4.40;;;1.23;;
60225;SDS011;46090;48.436;11.410;2024-02-26T16:01:18;6.40;;;1.67;;
60225;SDS011;46090;48.436;11.410;2024-02-26T16:03:50;16.02;;;7.85;;
60225;SDS011;46090;48.436;11.410;2024-02-26T16:06:22;7.18;;;2.70;;
60225;SDS011;46090;48.436;11.410;2024-02-26T16:08:55;5.75;;;1.60;;
60225;SDS011;46090;48.436;11.410;2024-02-26T16:11:22;34.67;;;18.55;;
60225;SDS011;46090;48.436;11.410;2024-02-26T16:13:50;14.60;;;6.80;;
60225;SDS011;46090;48.436;11.410;2024-02-26T16:16:23;11.30;;;4.10;;
60225;SDS011;46090;48.436;11.410;2024-02-26T16:18:54;11.25;;;2.97;;
60225;SDS011;46090;48.436;11.410;2024-02-26T16:21:28;4.50;;;1.50;;
60225;SDS011;46090;48.436;11.410;2024-02-26T16:23:55;6.53;;;2.03;;
60225;SDS011;46090;48.436;11.410;2024-02-26T16:26:22;5.10;;;1.90;;
60225;SDS011;46090;48.436;11.410;2024-02-26T16:28:48;8.52;;;3.72;;
60225;SDS011;46090;48.436;11.410;2024-02-26T16:31:15;5.93;;;2.45;;
60225;SDS011;46090;48.436;11.410;2024-02-26T16:33:42;7.43;;;3.00;;
60225;SDS011;46090;48.436;11.410;2024-02-26T16:36:09;6.30;;;2.67;;
60225;SDS011;46090;48.436;11.410;2024-02-26T16:38:36;6.07;;;2.80;;
60225;SDS011;46090;48.436;11.410;2024-02-26T16:41:04;5.80;;;2.45;;
60225;SDS011;46090;48.436;11.410;2024-02-26T16:43:30;6.45;;;2.97;;
60225;SDS011;46090;48.436;11.410;2024-02-26T16:45:59;6.10;;;2.35;;
60225;SDS011;46090;48.436;11.410;2024-02-26T16:48:29;12.90;;;5.95;;
60225;SDS011;46090;48.436;11.410;2024-02-26T16:50:59;11.88;;;6.25;;
60225;SDS011;46090;48.436;11.410;2024-02-26T16:53:26;12.70;;;7.43;;
60225;SDS011;46090;48.436;11.410;2024-02-26T16:55:53;12.05;;;6.00;;
60225;SDS011;46090;48.436;11.410;2024-02-26T16:58:19;20.92;;;11.45;;
60225;SDS011;46090;48.436;11.410;2024-02-26T17:00:50;12.25;;;6.60;;
60225;SDS011;46090;48.436;11.410;2024-02-26T17:03:17;6.40;;;2.13;;
60225;SDS011;46090;48.436;11.410;2024-02-26T17:05:44;6.10;;;1.80;;
60225;SDS011;46090;48.436;11.410;2024-02-26T17:08:11;4.20;;;1.65;;
60225;SDS011;46090;48.436;11.410;2024-02-26T17:10:38;5.03;;;1.95;;
60225;SDS011;46090;48.436;11.410;2024-02-26T17:13:05;5.13;;;1.67;;
60225;SDS011;46090;48.436;11.410;2024-02-26T17:15:31;6.25;;;1.85;;
60225;SDS011;46090;48.436;11.410;2024-02-26T17:17:58;4.80;;;1.52;;
60225;SDS011;46090;48.436;11.410;2024-02-26T17:20:26;4.68;;;1.45;;
60225;SDS011;46090;48.436;11.410;2024-02-26T17:22:53;3.90;;;1.20;;
60225;SDS011;46090;48.436;11.410;2024-02-26T17:25:19;4.25;;;1.27;;
60225;SDS011;46090;48.436;11.410;2024-02-26T17:27:46;5.03;;;1.20;;
60225;SDS011;46090;48.436;11.410;2024-02-26T17:30:13;4.28;;;1.40;;
60225;SDS011;46090;48.436;11.410;2024-02-26T17:32:40;7.03;;;1.55;;
60225;SDS011;46090;48.436;11.410;2024-02-26T17:35:06;3.58;;;1.20;;
60225;SDS011;46090;48.436;11.410;2024-02-26T17:37:36;3.97;;;1.20;;
60225;SDS011;46090;48.436;11.410;2024-02-26T17:40:03;3.90;;;1.30;;
60225;SDS011;46090;48.436;11.410;2024-02-26T17:42:32;4.53;;;1.20;;
60225;SDS011;46090;48.436;11.410;2024-02-26T17:45:00;3.95;;;1.45;;
60225;SDS011;46090;48.436;11.410;2024-02-26T17:47:27;4.88;;;1.70;;
60225;SDS011;46090;48.436;11.410;2024-02-26T17:49:54;5.97;;;2.30;;
60225;SDS011;46090;48.436;11.410;2024-02-26T17:52:21;6.75;;;2.28;;
60225;SDS011;46090;48.436;11.410;2024-02-26T17:54:48;6.70;;;1.83;;
60225;SDS011;46090;48.436;11.410;2024-02-26T17:57:14;4.90;;;1.70;;
60225;SDS011;46090;48.436;11.410;2024-02-26T17:59:43;3.97;;;1.20;;
60225;SDS011;46090;48.436;11.410;2024-02-26T18:02:10;4.70;;;1.50;;
60225;SDS011;46090;48.436;11.410;2024-02-26T18:04:36;4.97;;;1.58;;
60225;SDS011;46090;48.436;11.410;2024-02-26T18:07:03;4.28;;;1.65;;
60225;SDS011;46090;48.436;11.410;2024-02-26T18:09:30;4.00;;;1.70;;
60225;SDS011;46090;48.436;11.410;2024-02-26T18:11:57;6.82;;;1.92;;
60225;SDS011;46090;48.436;11.410;2024-02-26T18:14:24;11.35;;;4.80;;
60225;SDS011;46090;48.436;11.410;2024-02-26T18:16:51;7.90;;;2.97;;
60225;SDS011;46090;48.436;11.410;2024-02-26T18:19:18;8.07;;;2.95;;
60225;SDS011;46090;48.436;11.410;2024-02-26T18:21:45;6.90;;;2.40;;
60225;SDS011;46090;48.436;11.410;2024-02-26T18:24:11;7.72;;;2.85;;
60225;SDS011;46090;48.436;11.410;2024-02-26T18:26:40;5.05;;;1.90;;
60225;SDS011;46090;48.436;11.410;2024-02-26T18:29:10;11.15;;;5.15;;
60225;SDS011;46090;48.436;11.410;2024-02-26T18:31:37;11.13;;;4.82;;
60225;SDS011;46090;48.436;11.410;2024-02-26T18:34:05;4.68;;;1.80;;
60225;SDS011;46090;48.436;11.410;2024-02-26T18:36:31;6.90;;;2.85;;
60225;SDS011;46090;48.436;11.410;2024-02-26T18:38:58;6.93;;;2.47;;
60225;SDS011;46090;48.436;11.410;2024-02-26T18:41:25;6.22;;;2.20;;
60225;SDS011;46090;48.436;11.410;2024-02-26T18:43:52;6.70;;;2.53;;
60225;SDS011;46090;48.436;11.410;2024-02-26T18:46:19;6.50;;;2.83;;
60225;SDS011;46090;48.436;11.410;2024-02-26T18:48:46;5.00;;;1.90;;
60225;SDS011;46090;48.436;11.410;2024-02-26T18:51:14;6.45;;;2.80;;
60225;SDS011;46090;48.436;11.410;2024-02-26T18:53:41;6.43;;;2.78;;
60225;SDS011;46090;48.436;11.410;2024-02-26T18:56:08;8.80;;;2.70;;
60225;SDS011;46090;48.436;11.410;2024-02-26T18:58:35;7.13;;;2.72;;
60225;SDS011;46090;48.436;11.410;2024-02-26T19:01:02;8.23;;;3.08;;
60225;SDS011;46090;48.436;11.410;2024-02-26T19:03:29;8.35;;;4.55;;
60225;SDS011;46090;48.436;11.410;2024-02-26T19:05:56;7.47;;;4.53;;
60225;SDS011;46090;48.436;11.410;2024-02-26T19:08:24;9.85;;;5.70;;
60225;SDS011;46090;48.436;11.410;2024-02-26T19:10:52;12.88;;;6.65;;
60225;SDS011;46090;48.436;11.410;2024-02-26T19:13:19;11.75;;;5.40;;
60225;SDS011;46090;48.436;11.410;2024-02-26T19:15:45;13.93;;;5.60;;
60225;SDS011;46090;48.436;11.410;2024-02-26T19:18:13;8.77;;;4.00;;
60225;SDS011;46090;48.436;11.410;2024-02-26T19:20:40;8.23;;;3.35;;
60225;SDS011;46090;48.436;11.410;2024-02-26T19:23:06;8.73;;;2.95;;
60225;SDS011;46090;48.436;11.410;2024-02-26T19:25:33;5.15;;;2.58;;
60225;SDS011;46090;48.436;11.410;2024-02-26T19:28:00;6.85;;;2.88;;
60225;SDS011;46090;48.436;11.410;2024-02-26T19:30:27;6.10;;;2.75;;
60225;SDS011;46090;48.436;11.410;2024-02-26T19:32:53;8.07;;;2.55;;
60225;SDS011;46090;48.436;11.410;2024-02-26T19:35:20;6.78;;;2.72;;
60225;SDS011;46090;48.436;11.410;2024-02-26T19:37:47;5.65;;;2.47;;
60225;SDS011;46090;48.436;11.410;2024-02-26T19:40:13;5.15;;;1.85;;
60225;SDS011;46090;48.436;11.410;2024-02-26T19:42:41;7.82;;;3.08;;
60225;SDS011;46090;48.436;11.410;2024-02-26T19:45:08;6.35;;;2.45;;
60225;SDS011;46090;48.436;11.410;2024-02-26T19:47:38;12.02;;;5.28;;
60225;SDS011;46090;48.436;11.410;2024-02-26T19:50:06;9.43;;;4.90;;
60225;SDS011;46090;48.436;11.410;2024-02-26T19:52:34;9.77;;;5.25;;
60225;SDS011;46090;48.436;11.410;2024-02-26T19:55:02;8.27;;;4.45;;
60225;SDS011;46090;48.436;11.410;2024-02-26T19:57:29;6.50;;;3.08;;
60225;SDS011;46090;48.436;11.410;2024-02-26T19:59:57;5.50;;;2.33;;
60225;SDS011;46090;48.436;11.410;2024-02-26T20:02:24;8.90;;;2.92;;
60225;SDS011;46090;48.436;11.410;2024-02-26T20:04:50;6.97;;;2.50;;
60225;SDS011;46090;48.436;11.410;2024-02-26T20:07:17;4.68;;;2.33;;
60225;SDS011;46090;48.436;11.410;2024-02-26T20:09:47;5.13;;;1.95;;
60225;SDS011;46090;48.436;11.410;2024-02-26T20:12:13;4.88;;;2.20;;
60225;SDS011;46090;48.436;11.410;2024-02-26T20:14:41;4.85;;;1.92;;
60225;SDS011;46090;48.436;11.410;2024-02-26T20:17:09;4.82;;;1.80;;
60225;SDS011;46090;48.436;11.410;2024-02-26T20:19:37;5.22;;;2.10;;
60225;SDS011;46090;48.436;11.410;2024-02-26T20:22:04;4.65;;;1.67;;
60225;SDS011;46090;48.436;11.410;2024-02-26T20:24:31;4.72;;;2.13;;
60225;SDS011;46090;48.436;11.410;2024-02-26T20:26:58;7.43;;;2.38;;
60225;SDS011;46090;48.436;11.410;2024-02-26T20:29:26;5.40;;;2.35;;
60225;SDS011;46090;48.436;11.410;2024-02-26T20:31:53;6.47;;;1.90;;
60225;SDS011;46090;48.436;11.410;2024-02-26T20:34:19;4.80;;;2.10;;
60225;SDS011;46090;48.436;11.410;2024-02-26T20:36:47;8.40;;;3.35;;
60225;SDS011;46090;48.436;11.410;2024-02-26T20:39:14;5.57;;;2.17;;
60225;SDS011;46090;48.436;11.410;2024-02-26T20:41:42;4.22;;;1.75;;
60225;SDS011;46090;48.436;11.410;2024-02-26T20:44:09;5.78;;;2.25;;
60225;SDS011;46090;48.436;11.410;2024-02-26T20:46:39;5.50;;;2.20;;
60225;SDS011;46090;48.436;11.410;2024-02-26T20:49:07;6.50;;;2.95;;
60225;SDS011;46090;48.436;11.410;2024-02-26T20:51:35;5.93;;;2.00;;
60225;SDS011;46090;48.436;11.410;2024-02-26T20:54:03;7.57;;;2.15;;
60225;SDS011;46090;48.436;11.410;2024-02-26T20:56:38;5.30;;;2.60;;
60225;SDS011;46090;48.436;11.410;2024-02-26T20:59:05;5.65;;;2.38;;
60225;SDS011;46090;48.436;11.410;2024-02-26T21:01:33;6.38;;;2.72;;
60225;SDS011;46090;48.436;11.410;2024-02-26T21:04:00;6.03;;;2.67;;
60225;SDS011;46090;48.436;11.410;2024-02-26T21:06:27;6.25;;;2.97;;
60225;SDS011;46090;48.436;11.410;2024-02-26T21:08:54;7.07;;;3.22;;
60225;SDS011;46090;48.436;11.410;2024-02-26T21:11:21;7.10;;;3.33;;
60225;SDS011;46090;48.436;11.410;2024-02-26T21:13:48;6.90;;;3.20;;
60225;SDS011;46090;48.436;11.410;2024-02-26T21:16:15;7.25;;;3.42;;
60225;SDS011;46090;48.436;11.410;2024-02-26T21:18:41;7.20;;;3.28;;
60225;SDS011;46090;48.436;11.410;2024-02-26T21:21:10;7.20;;;3.35;;
60225;SDS011;46090;48.436;11.410;2024-02-26T21:23:37;9.73;;;4.03;;
60225;SDS011;46090;48.436;11.410;2024-02-26T21:26:05;8.30;;;3.53;;
60225;SDS011;46090;48.436;11.410;2024-02-26T21:28:33;8.02;;;3.78;;
60225;SDS011;46090;48.436;11.410;2024-02-26T21:31:00;8.50;;;4.05;;
60225;SDS011;46090;48.436;11.410;2024-02-26T21:33:27;8.57;;;3.90;;
60225;SDS011;46090;48.436;11.410;2024-02-26T21:35:55;9.27;;;4.47;;
60225;SDS011;46090;48.436;11.410;2024-02-26T21:38:23;9.05;;;4.18;;
60225;SDS011;46090;48.436;11.410;2024-02-26T21:41:01;7.97;;;4.55;;
60225;SDS011;46090;48.436;11.410;2024-02-26T21:43:28;8.73;;;4.20;;
60225;SDS011;46090;48.436;11.410;2024-02-26T21:45:56;7.82;;;4.35;;
60225;SDS011;46090;48.436;11.410;2024-02-26T21:51:15;9.02;;;5.03;;
60225;SDS011;46090;48.436;11.410;2024-02-26T21:53:42;9.48;;;5.13;;
60225;SDS011;46090;48.436;11.410;2024-02-26T21:56:11;11.90;;;5.40;;
60225;SDS011;46090;48.436;11.410;2024-02-26T21:58:38;10.50;;;5.65;;
60225;SDS011;46090;48.436;11.410;2024-02-26T22:01:05;11.52;;;5.57;;
60225;SDS011;46090;48.436;11.410;2024-02-26T22:03:32;10.30;;;5.55;;
60225;SDS011;46090;48.436;11.410;2024-02-26T22:05:59;9.98;;;5.88;;
60225;SDS011;46090;48.436;11.410;2024-02-26T22:08:26;12.05;;;6.38;;
60225;SDS011;46090;48.436;11.410;2024-02-26T22:10:53;9.57;;;5.35;;
60225;SDS011;46090;48.436;11.410;2024-02-26T22:13:20;10.32;;;6.30;;
60225;SDS011;46090;48.436;11.410;2024-02-26T22:15:47;10.70;;;6.00;;
60225;SDS011;46090;48.436;11.410;2024-02-26T22:18:14;12.15;;;5.72;;
60225;SDS011;46090;48.436;11.410;2024-02-26T22:20:41;12.77;;;5.82;;
60225;SDS011;46090;48.436;11.410;2024-02-26T22:23:07;12.07;;;5.90;;
60225;SDS011;46090;48.436;11.410;2024-02-26T22:25:34;10.80;;;5.50;;
60225;SDS011;46090;48.436;11.410;2024-02-26T22:28:01;11.27;;;5.32;;
60225;SDS011;46090;48.436;11.410;2024-02-26T22:30:28;11.30;;;5.45;;
60225;SDS011;46090;48.436;11.410;2024-02-26T22:32:54;12.38;;;5.72;;
60225;SDS011;46090;48.436;11.410;2024-02-26T22:35:22;11.85;;;6.15;;
60225;SDS011;46090;48.436;11.410;2024-02-26T22:37:49;10.93;;;5.75;;
60225;SDS011;46090;48.436;11.410;2024-02-26T22:40:17;9.18;;;5.32;;
60225;SDS011;46090;48.436;11.410;2024-02-26T22:42:43;11.13;;;5.90;;
60225;SDS011;46090;48.436;11.410;2024-02-26T22:45:11;10.93;;;5.63;;
60225;SDS011;46090;48.436;11.410;2024-02-26T22:47:39;11.63;;;6.25;;
60225;SDS011;46090;48.436;11.410;2024-02-26T22:50:07;10.70;;;5.95;;
60225;SDS011;46090;48.436;11.410;2024-02-26T22:52:34;11.10;;;6.25;;
60225;SDS011;46090;48.436;11.410;2024-02-26T22:55:01;11.07;;;6.13;;
60225;SDS011;46090;48.436;11.410;2024-02-26T22:57:28;11.95;;;7.70;;
60225;SDS011;46090;48.436;11.410;2024-02-26T22:59:55;12.35;;;6.63;;
60225;SDS011;46090;48.436;11.410;2024-02-26T23:02:21;12.48;;;6.68;;
60225;SDS011;46090;48.436;11.410;2024-02-26T23:04:49;10.15;;;6.00;;
60225;SDS011;46090;48.436;11.410;2024-02-26T23:07:15;11.50;;;6.40;;
60225;SDS011;46090;48.436;11.410;2024-02-26T23:09:42;13.73;;;6.57;;
60225;SDS011;46090;48.436;11.410;2024-02-26T23:12:09;11.02;;;5.78;;
60225;SDS011;46090;48.436;11.410;2024-02-26T23:14:36;11.75;;;6.50;;
60225;SDS011;46090;48.436;11.410;2024-02-26T23:17:02;12.25;;;6.57;;
60225;SDS011;46090;48.436;11.410;2024-02-26T23:19:29;13.43;;;6.50;;
60225;SDS011;46090;48.436;11.410;2024-02-26T23:22:00;12.82;;;6.70;;
60225;SDS011;46090;48.436;11.410;2024-02-26T23:24:27;11.18;;;5.97;;
60225;SDS011;46090;48.436;11.410;2024-02-26T23:26:54;12.02;;;6.70;;
60225;SDS011;46090;48.436;11.410;2024-02-26T23:29:20;13.13;;;6.25;;
60225;SDS011;46090;48.436;11.410;2024-02-26T23:31:47;12.70;;;5.95;;
60225;SDS011;46090;48.436;11.410;2024-02-26T23:34:14;11.05;;;7.15;;
60225;SDS011;46090;48.436;11.410;2024-02-26T23:36:40;12.93;;;6.38;;
60225;SDS011;46090;48.436;11.410;2024-02-26T23:39:08;12.82;;;6.88;;
60225;SDS011;46090;48.436;11.410;2024-02-26T23:41:34;11.55;;;6.80;;
60225;SDS011;46090;48.436;11.410;2024-02-26T23:44:01;13.82;;;7.18;;
60225;SDS011;46090;48.436;11.410;2024-02-26T23:46:31;14.13;;;6.75;;
60225;SDS011;46090;48.436;11.410;2024-02-26T23:49:02;12.20;;;6.45;;
60225;SDS011;46090;48.436;11.410;2024-02-26T23:51:30;12.38;;;6.55;;
60225;SDS011;46090;48.436;11.410;2024-02-26T23:53:57;14.32;;;7.05;;
60225;SDS011;46090;48.436;11.410;2024-02-26T23:56:24;13.48;;;7.63;;
60225;SDS011;46090;48.436;11.410;2024-02-26T23:58:51;16.30;;;8.65;;
